Time;durP1;ratioP1;P1;durP2;ratioP2;P2;SDS_P1;SDS_P2;PMS_P1;PMS_P2;Temp;Humidity;BMP_temperature;BMP_pressure;BME280_temperature;BME280_humidity;BME280_pressure;Samples;Min_cycle;Max_cycle;Signal;HPM_P1;HPM_P2
2023/04/11 00:02:00;;;;;;;;;;;;;;;23.55;30.53;100551.27;103753;1283;61436;-82
2023/04/11 00:04:26;;;;;;;;;;;;;;;23.56;30.42;100554.27;103715;1288;61384;-82
2023/04/11 00:06:52;;;;;;;;;;;;;;;23.55;30.54;100551.80;103806;1287;61317;-82
2023/04/11 00:09:18;;;;;;;;;;;;;;;23.55;30.51;100547.84;103758;1283;62021;-82
2023/04/11 00:11:44;;;;;;;;;;;;;;;23.55;30.59;100545.14;103807;1288;61841;-82
2023/04/11 00:14:11;;;;;;;;;;;;;;;23.55;30.45;100541.40;103694;1288;73536;-83
2023/04/11 00:16:36;;;;;;;;;;;;;;;23.55;30.52;100533.27;103758;1284;62451;-82
2023/04/11 00:19:02;;;;;;;;;;;;;;;23.55;30.50;100532.07;103749;1283;61311;-82
2023/04/11 00:21:27;;;;;;;;;;;;;;;23.55;30.51;100522.56;103738;1288;61434;-81
2023/04/11 00:23:53;;;;;;;;;;;;;;;23.55;30.44;100523.61;103759;1282;62051;-81
2023/04/11 00:26:20;;;;;;;;;;;;;;;23.55;30.44;100520.20;103727;1288;61357;-81
2023/04/11 00:28:45;;;;;;;;;;;;;;;23.55;30.59;100515.00;103758;1282;75427;-82
2023/04/11 00:31:12;;;;;;;;;;;;;;;23.55;30.46;100516.59;103679;1283;61391;-82
2023/04/11 00:33:37;;;;;;;;;;;;;;;23.55;30.46;100513.91;103705;1282;61868;-82
2023/04/11 00:36:03;;;;;;;;;;;;;;;23.55;30.56;100509.58;103539;1283;61400;-83
2023/04/11 00:38:28;;;;;;;;;;;;;;;23.55;30.49;100513.52;103764;1286;62516;-82
2023/04/11 00:40:54;;;;;;;;;;;;;;;23.55;30.43;100509.05;103708;1288;61775;-82
2023/04/11 00:43:19;;;;;;;;;;;;;;;23.55;30.33;100509.91;103723;1282;61455;-82
2023/04/11 00:45:45;;;;;;;;;;;;;;;23.55;30.44;100506.17;103737;1288;61396;-82
2023/04/11 00:48:10;;;;;;;;;;;;;;;23.55;30.38;100507.42;103765;1288;61423;-81
2023/04/11 00:50:38;;;;;;;;;;;;;;;23.56;30.35;100509.52;103655;1283;61399;-82
2023/04/11 00:53:04;;;;;;;;;;;;;;;23.56;30.46;100508.28;103702;1288;61483;-82
2023/04/11 00:55:30;;;;;;;;;;;;;;;23.55;30.31;100507.77;103783;1288;61368;-82
2023/04/11 00:57:55;;;;;;;;;;;;;;;23.55;30.45;100512.63;103555;1291;61353;-82
2023/04/11 01:00:21;;;;;;;;;;;;;;;23.55;30.36;100506.16;103676;1283;61531;-82
2023/04/11 01:02:47;;;;;;;;;;;;;;;23.55;30.34;100505.78;103754;1288;74398;-82
2023/04/11 01:05:13;;;;;;;;;;;;;;;23.56;30.33;100501.98;103733;1286;62471;-81
2023/04/11 01:07:39;;;;;;;;;;;;;;;23.56;30.28;100502.35;103721;1288;62078;-82
2023/04/11 01:10:05;;;;;;;;;;;;;;;23.55;30.42;100500.22;103761;1288;61378;-82
2023/04/11 01:12:31;;;;;;;;;;;;;;;23.55;30.31;100499.52;103722;1288;62605;-80
2023/04/11 01:14:56;;;;;;;;;;;;;;;23.55;30.35;100500.08;103752;1288;61407;-81
2023/04/11 01:17:24;;;;;;;;;;;;;;;23.55;30.35;100496.51;103779;1282;62631;-81
2023/04/11 01:19:50;;;;;;;;;;;;;;;23.55;30.31;100496.83;103767;1283;61816;-81
2023/04/11 01:22:16;;;;;;;;;;;;;;;23.55;30.28;100496.84;103688;1283;61362;-82
2023/04/11 01:24:42;;;;;;;;;;;;;;;23.55;30.30;100493.98;103658;1288;61444;-83
2023/04/11 01:27:08;;;;;;;;;;;;;;;23.55;30.36;100496.14;103768;1288;61304;-83
2023/04/11 01:29:33;;;;;;;;;;;;;;;23.55;30.33;100491.63;103709;1288;62556;-83
2023/04/11 01:31:59;;;;;;;;;;;;;;;23.55;30.22;100488.22;103929;1288;61291;-82
2023/04/11 01:34:27;;;;;;;;;;;;;;;23.55;30.21;100484.09;103770;1288;73497;-82
2023/04/11 01:36:52;;;;;;;;;;;;;;;23.55;30.30;100481.60;103791;1283;74265;-82
2023/04/11 01:39:17;;;;;;;;;;;;;;;23.55;30.22;100478.20;103724;1284;61451;-82
2023/04/11 01:41:43;;;;;;;;;;;;;;;23.54;30.22;100477.30;103696;1283;61394;-82
2023/04/11 01:44:08;;;;;;;;;;;;;;;23.55;30.19;100475.31;103711;1282;61368;-82
2023/04/11 01:46:34;;;;;;;;;;;;;;;23.55;30.19;100473.69;103763;1288;61453;-82
2023/04/11 01:49:00;;;;;;;;;;;;;;;23.54;30.12;100469.22;103718;1282;74385;-82
2023/04/11 01:51:26;;;;;;;;;;;;;;;23.55;30.23;100462.55;103778;1288;62585;-82
2023/04/11 01:53:51;;;;;;;;;;;;;;;23.55;30.17;100452.31;103686;1288;61441;-83
2023/04/11 01:56:17;;;;;;;;;;;;;;;23.55;30.18;100450.67;103755;1287;62628;-82
2023/04/11 01:58:42;;;;;;;;;;;;;;;23.55;30.19;100446.90;103596;1283;62555;-83
2023/04/11 02:01:08;;;;;;;;;;;;;;;23.55;30.12;100442.24;103736;1282;75685;-81
2023/04/11 02:03:33;;;;;;;;;;;;;;;23.55;30.13;100444.43;103777;1284;61355;-82
2023/04/11 02:06:00;;;;;;;;;;;;;;;23.54;30.16;100439.94;103558;1289;62562;-82
2023/04/11 02:08:25;;;;;;;;;;;;;;;23.54;30.17;100438.72;103782;1288;62474;-84
2023/04/11 02:10:51;;;;;;;;;;;;;;;23.55;30.10;100438.50;103752;1291;61396;-81
2023/04/11 02:13:16;;;;;;;;;;;;;;;23.55;30.01;100437.77;103927;1288;62536;-83
2023/04/11 02:15:42;;;;;;;;;;;;;;;23.55;30.08;100433.97;103929;1283;61720;-83
2023/04/11 02:18:08;;;;;;;;;;;;;;;23.55;30.07;100430.05;103935;1287;61470;-82
2023/04/11 02:20:34;;;;;;;;;;;;;;;23.55;30.09;100427.84;103897;1288;62397;-82
2023/04/11 02:23:03;;;;;;;;;;;;;;;23.55;30.02;100424.60;103694;1291;61334;-82
2023/04/11 02:25:29;;;;;;;;;;;;;;;23.55;30.09;100425.33;103920;1282;61390;-83
2023/04/11 02:27:55;;;;;;;;;;;;;;;23.55;30.05;100422.27;103992;1285;62021;-82
2023/04/11 02:30:21;;;;;;;;;;;;;;;23.56;30.07;100421.52;103918;1288;61361;-83
2023/04/11 02:32:48;;;;;;;;;;;;;;;23.55;29.99;100418.14;103911;1288;61361;-82
2023/04/11 02:35:14;;;;;;;;;;;;;;;23.56;29.95;100417.77;103928;1283;61372;-82
2023/04/11 02:37:40;;;;;;;;;;;;;;;23.56;30.08;100419.20;104024;1288;62187;-82
2023/04/11 02:40:06;;;;;;;;;;;;;;;23.56;30.01;100415.60;103986;1283;61285;-82
2023/04/11 02:42:32;;;;;;;;;;;;;;;23.56;30.01;100413.92;103970;1288;61378;-82
2023/04/11 02:44:57;;;;;;;;;;;;;;;23.56;30.03;100408.23;103992;1288;61278;-82
2023/04/11 02:47:24;;;;;;;;;;;;;;;23.56;30.00;100403.56;104008;1288;61413;-82
2023/04/11 02:49:49;;;;;;;;;;;;;;;23.56;29.99;100400.85;103945;1283;61707;-82
2023/04/11 02:52:16;;;;;;;;;;;;;;;23.56;29.95;100390.44;104017;1283;61378;-82
2023/04/11 02:54:43;;;;;;;;;;;;;;;23.55;29.83;100391.91;103946;1283;74339;-82
2023/04/11 02:57:08;;;;;;;;;;;;;;;23.55;29.96;100389.93;103976;1289;61359;-82
2023/04/11 02:59:34;;;;;;;;;;;;;;;23.56;30.07;100386.84;103951;1283;61445;-82
2023/04/11 03:01:59;;;;;;;;;;;;;;;23.56;29.91;100383.08;104013;1288;61316;-82
2023/04/11 03:04:25;;;;;;;;;;;;;;;23.56;29.92;100381.61;103903;1283;62440;-82
2023/04/11 03:06:50;;;;;;;;;;;;;;;23.56;29.85;100380.17;103897;1283;74963;-81
2023/04/11 03:09:16;;;;;;;;;;;;;;;23.56;29.94;100380.90;103842;1282;62518;-83
2023/04/11 03:11:41;;;;;;;;;;;;;;;23.56;29.87;100377.85;103919;1289;61477;-82
2023/04/11 03:14:07;;;;;;;;;;;;;;;23.56;29.88;100378.41;104045;1287;61381;-82
2023/04/11 03:16:32;;;;;;;;;;;;;;;23.56;29.96;100378.75;104071;1288;61329;-81
2023/04/11 03:18:59;;;;;;;;;;;;;;;23.56;29.86;100377.14;103754;1289;62572;-82
2023/04/11 03:21:25;;;;;;;;;;;;;;;23.56;29.83;100376.07;103972;1288;61272;-82
2023/04/11 03:23:51;;;;;;;;;;;;;;;23.56;29.92;100373.56;103992;1284;62490;-82
2023/04/11 03:26:17;;;;;;;;;;;;;;;23.56;29.80;100370.33;103930;1288;61339;-82
2023/04/11 03:28:42;;;;;;;;;;;;;;;23.56;29.84;100367.09;103948;1288;62629;-82
2023/04/11 03:31:08;;;;;;;;;;;;;;;23.56;29.83;100364.23;104016;1287;61413;-82
2023/04/11 03:33:33;;;;;;;;;;;;;;;23.55;29.82;100359.77;103975;1288;62544;-82
2023/04/11 03:35:59;;;;;;;;;;;;;;;23.55;29.81;100361.93;103919;1289;61413;-83
2023/04/11 03:38:25;;;;;;;;;;;;;;;23.55;29.85;100355.27;103874;1288;61385;-82
2023/04/11 03:40:50;;;;;;;;;;;;;;;23.56;29.82;100350.58;104025;1288;61840;-83
2023/04/11 03:43:16;;;;;;;;;;;;;;;23.55;29.75;100346.65;103936;1289;62441;-81
2023/04/11 03:45:41;;;;;;;;;;;;;;;23.56;29.80;100345.91;104001;1285;61765;-82
2023/04/11 03:48:07;;;;;;;;;;;;;;;23.55;29.76;100344.52;103984;1288;61403;-84
2023/04/11 03:50:32;;;;;;;;;;;;;;;23.55;29.77;100345.45;103919;1288;61460;-83
2023/04/11 03:52:58;;;;;;;;;;;;;;;23.55;29.72;100345.79;103881;1283;61724;-83
2023/04/11 03:55:24;;;;;;;;;;;;;;;23.55;29.73;100346.30;104150;1288;61461;-82
2023/04/11 03:57:50;;;;;;;;;;;;;;;23.55;29.75;100340.75;103970;1283;61500;-82
2023/04/11 04:00:17;;;;;;;;;;;;;;;23.55;29.64;100337.01;103972;1289;61340;-82
2023/04/11 04:02:43;;;;;;;;;;;;;;;23.55;29.67;100333.07;103946;1288;61291;-82
2023/04/11 04:05:09;;;;;;;;;;;;;;;23.55;29.67;100334.63;103879;1289;61381;-82
2023/04/11 04:07:35;;;;;;;;;;;;;;;23.56;29.63;100335.64;103873;1288;61364;-82
2023/04/11 04:10:00;;;;;;;;;;;;;;;23.55;29.62;100334.25;103990;1283;62628;-83
2023/04/11 04:12:26;;;;;;;;;;;;;;;23.55;29.63;100331.42;103990;1287;72623;-83
2023/04/11 04:14:51;;;;;;;;;;;;;;;23.55;29.66;100327.84;103879;1288;61464;-82
2023/04/11 04:17:17;;;;;;;;;;;;;;;23.55;29.61;100322.09;103962;1284;61349;-83
2023/04/11 04:19:44;;;;;;;;;;;;;;;23.56;29.64;100317.53;103921;1289;61413;-83
2023/04/11 04:22:10;;;;;;;;;;;;;;;23.56;29.57;100314.29;103940;1289;62617;-82
2023/04/11 04:24:40;;;;;;;;;;;;;;;23.55;29.57;100311.45;103896;1289;61387;-82
2023/04/11 04:27:09;;;;;;;;;;;;;;;23.55;29.53;100312.36;103867;1285;61387;-82
2023/04/11 04:29:45;;;;;;;;;;;;;;;23.55;29.53;100308.59;103941;1283;62551;-82
2023/04/11 04:32:22;;;;;;;;;;;;;;;23.56;29.53;100306.17;103943;1288;73775;-82
2023/04/11 04:34:56;;;;;;;;;;;;;;;23.56;29.47;100299.90;103919;1284;74468;-82
2023/04/11 04:37:22;;;;;;;;;;;;;;;23.56;29.49;100295.75;103900;1287;61365;-82
2023/04/11 04:39:49;;;;;;;;;;;;;;;23.56;29.52;100291.58;104035;1288;61305;-82
2023/04/11 04:42:16;;;;;;;;;;;;;;;23.57;29.50;100288.28;104049;1284;73347;-82
2023/04/11 04:44:41;;;;;;;;;;;;;;;23.57;29.64;100285.02;103895;1288;61292;-83
2023/04/11 04:47:07;;;;;;;;;;;;;;;23.57;29.57;100281.45;103901;1289;61774;-82
2023/04/11 04:49:32;;;;;;;;;;;;;;;23.58;29.62;100279.58;103893;1288;61391;-82
2023/04/11 04:51:58;;;;;;;;;;;;;;;23.58;29.58;100276.01;103975;1286;61272;-83
2023/04/11 04:54:24;;;;;;;;;;;;;;;23.58;29.58;100278.53;103832;1283;62370;-82
2023/04/11 04:56:49;;;;;;;;;;;;;;;23.58;29.59;100275.79;103966;1289;63120;-82
2023/04/11 04:59:15;;;;;;;;;;;;;;;23.59;29.59;100279.20;103983;1296;61363;-83
2023/04/11 05:01:41;;;;;;;;;;;;;;;23.58;29.66;100274.14;103854;1283;62419;-83
2023/04/11 05:04:06;;;;;;;;;;;;;;;23.60;29.73;100272.27;103932;1289;61381;-82
2023/04/11 05:06:32;;;;;;;;;;;;;;;23.60;29.74;100276.02;103868;1287;62416;-83
2023/04/11 05:08:58;;;;;;;;;;;;;;;23.60;29.75;100270.95;104046;1283;61374;-82
2023/04/11 05:11:24;;;;;;;;;;;;;;;23.61;29.73;100269.66;103910;1288;61394;-82
2023/04/11 05:13:50;;;;;;;;;;;;;;;23.61;29.73;100273.94;104042;1288;61305;-82
2023/04/11 05:16:16;;;;;;;;;;;;;;;23.61;29.77;100272.67;104001;1289;61385;-82
2023/04/11 05:18:42;;;;;;;;;;;;;;;23.61;29.73;100272.13;103954;1289;61427;-82
2023/04/11 05:21:07;;;;;;;;;;;;;;;23.61;29.85;100267.82;104141;1283;61457;-82
2023/04/11 05:23:33;;;;;;;;;;;;;;;23.62;29.83;100269.41;104105;1286;61282;-82
2023/04/11 05:25:58;;;;;;;;;;;;;;;23.62;29.79;100269.04;103896;1283;61382;-82
2023/04/11 05:28:24;;;;;;;;;;;;;;;23.62;29.83;100265.04;103974;1283;62600;-82
2023/04/11 05:30:49;;;;;;;;;;;;;;;23.62;29.88;100267.05;104007;1283;61394;-81
2023/04/11 05:33:15;;;;;;;;;;;;;;;23.62;29.84;100262.37;103952;1283;62912;-81
2023/04/11 05:35:41;;;;;;;;;;;;;;;23.62;29.91;100263.63;103924;1283;61439;-81
2023/04/11 05:38:08;;;;;;;;;;;;;;;23.62;29.91;100264.55;104114;1286;61996;-81
2023/04/11 05:40:34;;;;;;;;;;;;;;;23.62;29.86;100263.64;104156;1289;73412;-81
2023/04/11 05:42:59;;;;;;;;;;;;;;;23.62;29.95;100261.13;104094;1282;62651;-82
2023/04/11 05:45:31;;;;;;;;;;;;;;;23.60;29.91;100256.91;104402;1289;61702;-82
2023/04/11 05:47:56;;;;;;;;;;;;;;;23.62;30.01;100256.27;104183;1288;61298;-83
2023/04/11 05:50:22;;;;;;;;;;;;;;;23.62;29.89;100252.33;104196;1289;61281;-82
2023/04/11 05:52:47;;;;;;;;;;;;;;;23.62;29.81;100251.59;104108;1286;61406;-82
2023/04/11 05:55:13;;;;;;;;;;;;;;;23.62;29.82;100245.31;104085;1283;62548;-82
2023/04/11 05:57:38;;;;;;;;;;;;;;;23.62;29.93;100243.54;104106;1290;61438;-83
2023/04/11 06:00:11;;;;;;;;;;;;;;;23.61;29.86;100239.79;103972;1286;61386;-82
2023/04/11 06:02:39;;;;;;;;;;;;;;;23.62;29.90;100237.42;104175;1283;73796;-82
2023/04/11 06:05:04;;;;;;;;;;;;;;;23.62;29.93;100235.06;104252;1288;75379;-82
2023/04/11 06:07:31;;;;;;;;;;;;;;;23.62;29.89;100234.70;104138;1286;61397;-82
2023/04/11 06:09:58;;;;;;;;;;;;;;;23.62;29.90;100231.63;104139;1283;61326;-82
2023/04/11 06:12:23;;;;;;;;;;;;;;;23.63;29.95;100229.95;104018;1286;61305;-83
2023/04/11 06:14:49;;;;;;;;;;;;;;;23.62;29.99;100228.39;104082;1298;61394;-82
2023/04/11 06:17:14;;;;;;;;;;;;;;;23.62;29.99;100225.70;104402;1282;61811;-83
2023/04/11 06:19:40;;;;;;;;;;;;;;;23.62;30.10;100226.13;104703;1286;61407;-81
2023/04/11 06:22:05;;;;;;;;;;;;;;;23.61;29.99;100222.71;104233;1288;61308;-81
2023/04/11 06:24:36;;;;;;;;;;;;;;;23.62;30.03;100222.49;104091;1288;61382;-82
2023/04/11 06:27:02;;;;;;;;;;;;;;;23.62;30.01;100217.67;103887;1283;74466;-82
2023/04/11 06:29:27;;;;;;;;;;;;;;;23.61;30.06;100212.89;104154;1283;62517;-82
2023/04/11 06:31:53;;;;;;;;;;;;;;;23.61;30.11;100213.22;104111;1289;61374;-82
2023/04/11 06:34:18;;;;;;;;;;;;;;;23.61;30.17;100210.02;104098;1283;61311;-82
2023/04/11 06:36:46;;;;;;;;;;;;;;;23.61;30.17;100205.37;104089;1286;61317;-82
2023/04/11 06:39:12;;;;;;;;;;;;;;;23.60;30.24;100203.41;104095;1283;75508;-81
2023/04/11 06:41:38;;;;;;;;;;;;;;;23.61;30.29;100201.05;103934;1286;62593;-82
2023/04/11 06:44:03;;;;;;;;;;;;;;;23.60;30.32;100195.89;103909;1283;61375;-82
2023/04/11 06:46:29;;;;;;;;;;;;;;;23.60;30.49;100194.64;104023;1282;61375;-81
2023/04/11 06:48:54;;;;;;;;;;;;;;;23.60;30.51;100191.75;104047;1286;61384;-82
2023/04/11 06:51:20;;;;;;;;;;;;;;;23.60;30.48;100187.23;104066;1287;61378;-82
2023/04/11 06:53:45;;;;;;;;;;;;;;;23.60;30.55;100188.86;103937;1288;61384;-81
2023/04/11 06:56:11;;;;;;;;;;;;;;;23.60;30.58;100185.80;103991;1288;61356;-81
2023/04/11 06:58:36;;;;;;;;;;;;;;;23.61;30.59;100189.00;104186;1283;61317;-81
2023/04/11 07:01:02;;;;;;;;;;;;;;;23.61;30.72;100184.14;104508;1286;62485;-81
2023/04/11 07:03:29;;;;;;;;;;;;;;;23.62;30.85;100185.68;104092;1283;61380;-82
2023/04/11 07:05:55;;;;;;;;;;;;;;;23.62;30.83;100182.27;103634;1286;736969;-81
2023/04/11 07:08:20;;;;;;;;;;;;;;;23.62;30.88;100178.31;104352;1283;63582;-81
2023/04/11 07:10:46;;;;;;;;;;;;;;;23.63;31.01;100177.34;104037;1283;61374;-81
2023/04/11 07:13:12;;;;;;;;;;;;;;;23.63;31.12;100175.70;104269;1286;61817;-81
2023/04/11 07:15:38;;;;;;;;;;;;;;;23.63;31.10;100170.88;104056;1287;61750;-81
2023/04/11 07:18:03;;;;;;;;;;;;;;;23.63;31.22;100172.27;104102;1287;62527;-81
2023/04/11 07:20:31;;;;;;;;;;;;;;;23.64;31.24;100171.70;104230;1282;61401;-81
2023/04/11 07:22:57;;;;;;;;;;;;;;;23.64;31.31;100174.00;103882;1288;73321;-81
2023/04/11 07:25:29;;;;;;;;;;;;;;;23.64;31.35;100172.58;103858;1288;61470;-81
2023/04/11 07:27:55;;;;;;;;;;;;;;;23.64;31.40;100172.69;104220;1288;61349;-82
2023/04/11 07:30:20;;;;;;;;;;;;;;;23.65;31.52;100168.02;104040;1283;61371;-81
2023/04/11 07:32:46;;;;;;;;;;;;;;;23.64;31.61;100163.73;104030;1289;61721;-82
2023/04/11 07:35:11;;;;;;;;;;;;;;;23.64;31.49;100161.09;104202;1282;61401;-82
2023/04/11 07:37:37;;;;;;;;;;;;;;;23.62;31.41;100163.58;104081;1283;61320;-82
2023/04/11 07:40:08;;;;;;;;;;;;;;;23.59;31.44;100157.35;103955;1285;61209;-82
2023/04/11 07:42:34;;;;;;;;;;;;;;;23.56;31.35;100153.10;104146;1283;61246;-82
2023/04/11 07:44:59;;;;;;;;;;;;;;;23.55;31.42;100148.57;104015;1288;62574;-82
2023/04/11 07:47:25;;;;;;;;;;;;;;;23.52;31.30;100145.04;104353;1285;61320;-83
2023/04/11 07:49:50;;;;;;;;;;;;;;;23.51;31.35;100143.69;104097;1283;61458;-82
2023/04/11 07:52:16;;;;;;;;;;;;;;;23.50;31.29;100143.28;104067;1289;61391;-82
2023/04/11 07:54:41;;;;;;;;;;;;;;;23.48;31.29;100141.10;104314;1288;61489;-82
2023/04/11 07:57:06;;;;;;;;;;;;;;;23.43;31.28;100137.63;104356;1283;62489;-82
2023/04/11 07:59:32;;;;;;;;;;;;;;;23.38;31.38;100132.02;104258;1282;61315;-82
2023/04/11 08:01:58;;;;;;;;;;;;;;;23.32;31.59;100124.64;104369;1283;61390;-82
2023/04/11 08:04:24;;;;;;;;;;;;;;;23.29;31.60;100121.19;104339;1282;61317;-81
2023/04/11 08:06:50;;;;;;;;;;;;;;;23.24;31.72;100118.66;104288;1286;61444;-80
2023/04/11 08:09:16;;;;;;;;;;;;;;;23.22;31.73;100117.48;104378;1285;73448;-81
2023/04/11 08:11:41;;;;;;;;;;;;;;;23.19;31.84;100113.09;104370;1287;62452;-81
2023/04/11 08:14:07;;;;;;;;;;;;;;;23.16;31.77;100106.39;104261;1283;61268;-81
2023/04/11 08:16:33;;;;;;;;;;;;;;;23.14;31.61;100112.27;104383;1288;61400;-82
2023/04/11 08:18:58;;;;;;;;;;;;;;;23.12;31.77;100105.95;104178;1283;61561;-81
2023/04/11 08:21:24;;;;;;;;;;;;;;;23.10;31.68;100103.27;104278;1283;73846;-81
2023/04/11 08:23:49;;;;;;;;;;;;;;;23.08;31.67;100095.55;104314;1282;61404;-81
2023/04/11 08:26:15;;;;;;;;;;;;;;;23.07;31.67;100093.64;104314;1286;61377;-81
2023/04/11 08:28:41;;;;;;;;;;;;;;;23.06;31.55;100082.65;104253;1288;61379;-82
2023/04/11 08:31:08;;;;;;;;;;;;;;;23.05;31.46;100076.83;104165;1282;61609;-81
2023/04/11 08:33:34;;;;;;;;;;;;;;;23.03;31.51;100068.53;104250;1282;62426;-82
2023/04/11 08:35:59;;;;;;;;;;;;;;;23.02;31.26;100060.92;104201;1283;61784;-82
2023/04/11 08:38:25;;;;;;;;;;;;;;;23.01;31.29;100048.66;104364;1283;61848;-81
2023/04/11 08:40:50;;;;;;;;;;;;;;;22.99;31.12;100047.17;104341;1282;61328;-81
2023/04/11 08:43:16;;;;;;;;;;;;;;;22.99;31.00;100044.91;104558;1288;62425;-82
2023/04/11 08:45:41;;;;;;;;;;;;;;;22.99;30.85;100043.46;104313;1282;61871;-81
2023/04/11 08:48:07;;;;;;;;;;;;;;;22.99;30.83;100035.95;104341;1286;62532;-81
2023/04/11 08:50:41;;;;;;;;;;;;;;;22.97;30.85;100030.84;104258;1286;62515;-82
2023/04/11 08:53:07;;;;;;;;;;;;;;;22.95;30.84;100035.71;104166;1282;61691;-81
2023/04/11 08:55:32;;;;;;;;;;;;;;;22.94;30.71;100027.41;104158;1288;61455;-81
2023/04/11 08:57:58;;;;;;;;;;;;;;;22.92;30.74;100022.65;104169;1282;61375;-81
2023/04/11 09:00:24;;;;;;;;;;;;;;;22.92;30.65;100011.18;104611;1283;61304;-81
2023/04/11 09:03:00;;;;;;;;;;;;;;;22.92;30.58;100008.11;104742;1283;61343;-82
2023/04/11 09:05:32;;;;;;;;;;;;;;;22.92;30.59;100004.52;104268;1283;72333;-81
2023/04/11 09:07:59;;;;;;;;;;;;;;;22.93;30.43;100003.98;104337;1285;74520;-81
2023/04/11 09:10:25;;;;;;;;;;;;;;;22.93;30.39;99995.91;104139;1283;61368;-81
2023/04/11 09:12:51;;;;;;;;;;;;;;;22.93;30.41;99991.04;104291;1282;62501;-82
2023/04/11 09:15:17;;;;;;;;;;;;;;;22.93;30.34;99991.91;104135;1283;61256;-81
2023/04/11 09:17:43;;;;;;;;;;;;;;;22.93;30.25;99990.84;104130;1282;62496;-81
2023/04/11 09:20:15;;;;;;;;;;;;;;;22.93;30.10;99988.91;104252;1283;61409;-81
2023/04/11 09:22:41;;;;;;;;;;;;;;;22.92;30.09;99986.63;104226;1282;61343;-81
2023/04/11 09:25:06;;;;;;;;;;;;;;;22.91;29.99;99977.02;104112;1285;61396;-81
2023/04/11 09:27:32;;;;;;;;;;;;;;;22.90;29.99;99972.45;104076;1283;61391;-82
2023/04/11 09:29:58;;;;;;;;;;;;;;;22.89;29.93;99970.23;104369;1285;62589;-81
2023/04/11 09:32:27;;;;;;;;;;;;;;;22.89;29.71;99965.25;104218;1282;61292;-80
2023/04/11 09:35:09;;;;;;;;;;;;;;;22.89;29.68;99963.98;104125;1285;61148;-82
2023/04/11 09:37:41;;;;;;;;;;;;;;;22.88;29.59;99959.02;104207;1286;75119;-81
2023/04/11 09:40:07;;;;;;;;;;;;;;;22.87;29.53;99950.29;104191;1283;61295;-81
2023/04/11 09:42:33;;;;;;;;;;;;;;;22.87;29.70;99951.23;104118;1282;61364;-82
2023/04/11 09:44:59;;;;;;;;;;;;;;;22.86;29.55;99940.86;104473;1283;61422;-82
2023/04/11 09:47:24;;;;;;;;;;;;;;;22.87;29.45;99942.77;104120;1289;61246;-82
2023/04/11 09:49:51;;;;;;;;;;;;;;;22.88;29.40;99935.51;104091;1282;62638;-82
2023/04/11 09:52:17;;;;;;;;;;;;;;;22.88;29.29;99934.26;104032;1288;61333;-82
2023/04/11 09:54:42;;;;;;;;;;;;;;;22.88;29.44;99932.25;104250;1282;61855;-81
2023/04/11 09:57:08;;;;;;;;;;;;;;;22.89;29.30;99929.31;103949;1283;73443;-82
2023/04/11 09:59:33;;;;;;;;;;;;;;;22.90;29.26;99928.17;104152;1282;61730;-81
2023/04/11 10:01:59;;;;;;;;;;;;;;;22.91;29.19;99929.48;104078;1282;61487;-81
2023/04/11 10:04:26;;;;;;;;;;;;;;;22.92;29.15;99927.47;104112;1288;61303;-82
2023/04/11 10:07:02;;;;;;;;;;;;;;;22.91;29.07;99928.38;104350;1283;61380;-81
2023/04/11 10:09:28;;;;;;;;;;;;;;;22.93;29.10;99925.90;104283;1283;75014;-82
2023/04/11 10:11:54;;;;;;;;;;;;;;;22.93;29.03;99926.95;104219;1286;61343;-81
2023/04/11 10:14:35;;;;;;;;;;;;;;;22.93;28.97;99927.55;104189;1283;61410;-81
2023/04/11 10:17:16;;;;;;;;;;;;;;;22.92;28.93;99922.23;104077;1283;72478;-81
2023/04/11 10:19:46;;;;;;;;;;;;;;;22.92;28.80;99921.34;104036;1283;74716;-82
2023/04/11 10:22:31;;;;;;;;;;;;;;;22.92;28.82;99916.27;104479;1282;61244;-81
2023/04/11 10:25:16;;;;;;;;;;;;;;;22.93;28.87;99918.30;104214;1282;61320;-82
2023/04/11 10:27:45;;;;;;;;;;;;;;;22.99;29.06;99916.77;104165;1286;72451;-82
2023/04/11 10:30:11;;;;;;;;;;;;;;;23.04;29.29;99913.77;104145;1285;73309;-82
2023/04/11 10:32:36;;;;;;;;;;;;;;;23.09;29.37;99913.45;104087;1283;61467;-81
2023/04/11 10:35:15;;;;;;;;;;;;;;;23.15;29.44;99912.64;104093;1284;61493;-81
2023/04/11 10:37:40;;;;;;;;;;;;;;;23.20;29.42;99904.62;104107;1282;73672;-81
2023/04/11 10:40:09;;;;;;;;;;;;;;;23.24;29.31;99902.63;104024;1282;61457;-82
2023/04/11 10:42:39;;;;;;;;;;;;;;;23.28;29.44;99896.46;104295;1285;62496;-82
2023/04/11 10:45:21;;;;;;;;;;;;;;;23.32;29.29;99898.95;104442;1282;61390;-82
2023/04/11 10:47:50;;;;;;;;;;;;;;;23.35;29.34;99902.59;104243;1286;72550;-81
2023/04/11 10:50:25;;;;;;;;;;;;;;;23.39;29.34;99900.98;104369;1284;74494;-81
2023/04/11 10:52:50;;;;;;;;;;;;;;;23.42;29.41;99900.16;104263;1282;61400;-81
2023/04/11 10:55:16;;;;;;;;;;;;;;;23.45;29.30;99898.68;104505;1286;61380;-81
2023/04/11 10:58:00;;;;;;;;;;;;;;;23.48;29.34;99901.81;104346;1285;61416;-82
2023/04/11 11:00:26;;;;;;;;;;;;;;;23.50;29.45;99901.78;105127;1283;74466;-81
2023/04/11 11:02:52;;;;;;;;;;;;;;;23.52;29.48;99898.64;105370;1285;61300;-81
2023/04/11 11:05:17;;;;;;;;;;;;;;;23.54;29.40;99895.59;105493;1283;61393;-81
2023/04/11 11:07:46;;;;;;;;;;;;;;;23.57;29.46;99900.70;104877;1286;61701;-81
2023/04/11 11:10:12;;;;;;;;;;;;;;;23.59;29.46;99898.15;104130;1283;61474;-81
2023/04/11 11:12:50;;;;;;;;;;;;;;;23.61;29.55;99897.13;104329;1282;61355;-81
2023/04/11 11:15:15;;;;;;;;;;;;;;;23.63;29.39;99900.73;104126;1283;61327;-81
2023/04/11 11:17:41;;;;;;;;;;;;;;;23.65;29.44;99896.05;104031;1283;62360;-81
2023/04/11 11:20:18;;;;;;;;;;;;;;;23.65;29.48;99893.66;103967;1288;61403;-83
2023/04/11 11:22:57;;;;;;;;;;;;;;;23.67;29.56;99889.70;103962;1287;61326;-82
2023/04/11 11:25:24;;;;;;;;;;;;;;;23.68;29.55;99888.91;104157;1282;61314;-82
2023/04/11 11:27:57;;;;;;;;;;;;;;;23.68;29.48;99887.43;103986;1283;72448;-81
2023/04/11 11:30:22;;;;;;;;;;;;;;;23.69;29.43;99888.29;104053;1282;74395;-82
2023/04/11 11:32:49;;;;;;;;;;;;;;;23.69;29.51;99880.19;103986;1282;61375;-82
2023/04/11 11:35:15;;;;;;;;;;;;;;;23.70;29.54;99882.21;104140;1283;61389;-81
2023/04/11 11:37:40;;;;;;;;;;;;;;;23.71;29.47;99873.70;104042;1287;61301;-81
2023/04/11 11:40:11;;;;;;;;;;;;;;;23.71;29.53;99878.50;104050;1283;61871;-81
2023/04/11 11:42:37;;;;;;;;;;;;;;;23.72;29.65;99876.64;104145;1282;61323;-81
2023/04/11 11:45:15;;;;;;;;;;;;;;;23.72;29.56;99866.23;104006;1282;62083;-82
2023/04/11 11:47:42;;;;;;;;;;;;;;;23.73;29.58;99864.20;103973;1288;73361;-81
2023/04/11 11:50:08;;;;;;;;;;;;;;;23.73;29.60;99866.48;104044;1282;74233;-81
2023/04/11 11:52:35;;;;;;;;;;;;;;;23.73;29.57;99863.39;104073;1286;61795;-82
2023/04/11 11:55:16;;;;;;;;;;;;;;;23.73;29.66;99864.30;104062;1282;61382;-81
2023/04/11 11:57:45;;;;;;;;;;;;;;;23.74;29.64;99862.43;104087;1282;72930;-82
2023/04/11 12:00:11;;;;;;;;;;;;;;;23.74;29.72;99860.27;104064;1282;75688;-82
2023/04/11 12:02:37;;;;;;;;;;;;;;;23.74;29.66;99856.84;103651;1286;62039;-81
2023/04/11 12:05:06;;;;;;;;;;;;;;;23.74;29.65;99857.78;103614;1288;61452;-82
2023/04/11 12:07:38;;;;;;;;;;;;;;;23.74;29.62;99856.19;103657;1288;73242;-82
2023/04/11 12:10:09;;;;;;;;;;;;;;;23.74;29.60;99855.05;103563;1288;75228;-82
2023/04/11 12:12:36;;;;;;;;;;;;;;;23.74;29.61;99850.00;103927;1287;61523;-82
2023/04/11 12:15:05;;;;;;;;;;;;;;;23.75;29.72;99843.34;103795;1289;62390;-82
2023/04/11 12:17:31;;;;;;;;;;;;;;;23.76;29.68;99845.58;103620;1287;72591;-82
2023/04/11 12:19:57;;;;;;;;;;;;;;;23.76;29.85;99845.70;103674;1291;61277;-82
2023/04/11 12:22:22;;;;;;;;;;;;;;;23.76;29.76;99844.23;103611;1288;61556;-82
2023/04/11 12:25:11;;;;;;;;;;;;;;;23.77;29.82;99845.08;103612;1286;61558;-82
2023/04/11 12:27:37;;;;;;;;;;;;;;;23.77;29.80;99840.52;103670;1289;72499;-82
2023/04/11 12:30:05;;;;;;;;;;;;;;;23.78;29.84;99836.71;103786;1286;62042;-82